Time;durP1;ratioP1;P1;durP2;ratioP2;P2;SDS_P1;SDS_P2;PMS_P1;PMS_P2;Temp;Humidity;BMP_temperature;BMP_pressure;BME280_temperature;BME280_humidity;BME280_pressure;Samples;Min_cycle;Max_cycle;Signal;HPM_P1;HPM_P2
2023/04/18 00:00:33;;;;;;;1.57;1.47;;;;;;;;;;5023365;28;58522;-60
2023/04/18 00:02:58;;;;;;;1.73;1.43;;;;;;;;;;5022836;28;58977;-60
2023/04/18 00:05:23;;;;;;;1.80;1.50;;;;;;;;;;5020414;28;58355;-58
2023/04/18 00:07:48;;;;;;;1.70;1.60;;;;;;;;;;5017506;28;58262;-60
2023/04/18 00:10:13;;;;;;;1.80;1.70;;;;;;;;;;5020510;28;58501;-60
2023/04/18 00:12:39;;;;;;;1.97;1.43;;;;;;;;;;5022726;28;58514;-60
2023/04/18 00:15:07;;;;;;;1.70;1.60;;;;;;;;;;5019985;28;59338;-60
2023/04/18 00:17:34;;;;;;;1.80;1.70;;;;;;;;;;5023767;28;59143;-60
2023/04/18 00:20:01;;;;;;;1.45;1.35;;;;;;;;;;5020919;28;58762;-60
2023/04/18 00:22:27;;;;;;;2.15;1.80;;;;;;;;;;5021831;28;59264;-60
2023/04/18 00:24:52;;;;;;;1.60;1.50;;;;;;;;;;5023560;28;59422;-59
2023/04/18 00:27:17;;;;;;;1.50;1.40;;;;;;;;;;5022835;28;58405;-60
2023/04/18 00:29:42;;;;;;;1.30;1.20;;;;;;;;;;5020894;28;58931;-60
2023/04/18 00:32:07;;;;;;;1.80;1.70;;;;;;;;;;5020778;28;58800;-60
2023/04/18 00:34:33;;;;;;;1.92;1.83;;;;;;;;;;5023704;28;58347;-60
2023/04/18 00:36:58;;;;;;;1.52;1.38;;;;;;;;;;5022780;28;58365;-57
2023/04/18 00:39:23;;;;;;;1.65;1.55;;;;;;;;;;5021878;28;58706;-60
2023/04/18 00:41:49;;;;;;;2.83;2.15;;;;;;;;;;5020330;28;58490;-60
2023/04/18 00:44:14;;;;;;;2.00;1.80;;;;;;;;;;5021689;28;58790;-60
2023/04/18 00:46:39;;;;;;;1.77;1.67;;;;;;;;;;5022232;28;58447;-59
2023/04/18 00:49:05;;;;;;;2.73;2.07;;;;;;;;;;5019902;28;59119;-58
2023/04/18 00:51:31;;;;;;;1.42;1.33;;;;;;;;;;5020847;28;59337;-60
2023/04/18 00:53:56;;;;;;;1.38;1.27;;;;;;;;;;5025315;27;58737;-60
2023/04/18 00:56:22;;;;;;;1.60;1.50;;;;;;;;;;5026408;28;59853;-60
2023/04/18 00:58:47;;;;;;;2.72;1.60;;;;;;;;;;5023121;28;58586;-60
2023/04/18 01:01:13;;;;;;;2.33;1.80;;;;;;;;;;5025286;28;58751;-60
2023/04/18 01:03:38;;;;;;;2.75;2.25;;;;;;;;;;5024806;28;58537;-60
2023/04/18 01:06:03;;;;;;;3.17;2.27;;;;;;;;;;5024784;28;58883;-60
2023/04/18 01:08:28;;;;;;;1.77;1.60;;;;;;;;;;5023298;28;59011;-60
2023/04/18 01:10:53;;;;;;;2.10;1.77;;;;;;;;;;5022706;28;58416;-57
2023/04/18 01:13:19;;;;;;;1.63;1.53;;;;;;;;;;5024380;28;58379;-59
2023/04/18 01:15:45;;;;;;;1.48;1.38;;;;;;;;;;5025457;28;58747;-59
2023/04/18 01:18:11;;;;;;;1.42;1.33;;;;;;;;;;5023168;28;58565;-60
2023/04/18 01:20:40;;;;;;;1.35;1.20;;;;;;;;;;5023578;28;57725;-59
2023/04/18 01:23:05;;;;;;;;;;;;;;;;;;5024349;28;58882;-56
2023/04/18 01:25:30;;;;;;;1.30;1.20;;;;;;;;;;5024050;28;58596;-60
2023/04/18 01:27:57;;;;;;;1.60;1.50;;;;;;;;;;5024617;28;59013;-59
2023/04/18 01:30:22;;;;;;;2.70;1.70;;;;;;;;;;5024437;28;58079;-60
2023/04/18 01:32:47;;;;;;;1.37;1.27;;;;;;;;;;5025143;28;58812;-60
2023/04/18 01:35:13;;;;;;;1.60;1.50;;;;;;;;;;5023571;28;59190;-59
2023/04/18 01:37:38;;;;;;;1.83;1.70;;;;;;;;;;5023166;28;58502;-58
2023/04/18 01:40:03;;;;;;;1.77;1.67;;;;;;;;;;5023745;28;59225;-59
2023/04/18 01:42:28;;;;;;;1.73;1.63;;;;;;;;;;5022402;28;59406;-60
2023/04/18 01:44:53;;;;;;;3.77;1.90;;;;;;;;;;5023894;28;58698;-60
2023/04/18 01:47:19;;;;;;;1.77;1.67;;;;;;;;;;5024730;28;58784;-60
2023/04/18 01:49:46;;;;;;;1.50;1.40;;;;;;;;;;5021885;28;58478;-59
2023/04/18 01:52:13;;;;;;;1.73;1.63;;;;;;;;;;5024765;28;58433;-60
2023/04/18 01:54:38;;;;;;;1.70;1.60;;;;;;;;;;5021994;28;58503;-60
2023/04/18 01:57:03;;;;;;;1.40;1.30;;;;;;;;;;5021315;28;58763;-60
2023/04/18 01:59:28;;;;;;;2.10;1.90;;;;;;;;;;5023213;28;58671;-60
2023/04/18 02:01:53;;;;;;;1.50;1.40;;;;;;;;;;5021212;28;58812;-60
2023/04/18 02:04:18;;;;;;;2.08;1.95;;;;;;;;;;5023721;28;58820;-58
2023/04/18 02:06:43;;;;;;;1.98;1.85;;;;;;;;;;5023535;28;58374;-60
2023/04/18 02:09:09;;;;;;;2.00;1.75;;;;;;;;;;5023132;28;58617;-60
2023/04/18 02:11:34;;;;;;;1.83;1.73;;;;;;;;;;5022446;28;58700;-60
2023/04/18 02:13:59;;;;;;;1.75;1.65;;;;;;;;;;5022957;28;58747;-60
2023/04/18 02:16:25;;;;;;;1.77;1.67;;;;;;;;;;5022811;28;58890;-60
2023/04/18 02:18:51;;;;;;;1.73;1.50;;;;;;;;;;5022857;28;58370;-59
2023/04/18 02:21:20;;;;;;;1.70;1.60;;;;;;;;;;5023494;28;58456;-60
2023/04/18 02:23:45;;;;;;;2.15;1.92;;;;;;;;;;5021583;28;59562;-60
2023/04/18 02:26:10;;;;;;;2.20;2.10;;;;;;;;;;5023687;28;58589;-58
2023/04/18 02:28:37;;;;;;;1.40;1.30;;;;;;;;;;5022105;28;58380;-60
2023/04/18 02:31:03;;;;;;;1.55;1.45;;;;;;;;;;5022389;28;58215;-58
2023/04/18 02:33:28;;;;;;;1.77;1.60;;;;;;;;;;5020682;28;59159;-59
2023/04/18 02:35:53;;;;;;;1.97;1.77;;;;;;;;;;5021657;28;58810;-59
2023/04/18 02:38:18;;;;;;;1.80;1.70;;;;;;;;;;5024381;28;58775;-60
2023/04/18 02:40:43;;;;;;;1.70;1.60;;;;;;;;;;5023113;28;58907;-60
2023/04/18 02:43:08;;;;;;;1.50;1.40;;;;;;;;;;5022677;28;60223;-60
2023/04/18 02:45:33;;;;;;;2.33;1.52;;;;;;;;;;5022182;28;58443;-58
2023/04/18 02:48:00;;;;;;;1.60;1.50;;;;;;;;;;5021754;28;60650;-60
2023/04/18 02:50:25;;;;;;;1.75;1.65;;;;;;;;;;5021654;28;58604;-60
2023/04/18 02:52:51;;;;;;;1.63;1.52;;;;;;;;;;5021383;28;59250;-59
2023/04/18 02:55:16;;;;;;;2.07;1.87;;;;;;;;;;5022028;28;59446;-60
2023/04/18 02:57:41;;;;;;;1.50;1.40;;;;;;;;;;5020843;28;58444;-60
2023/04/18 03:00:07;;;;;;;1.60;1.48;;;;;;;;;;5023539;28;58931;-60
2023/04/18 03:02:32;;;;;;;1.40;1.30;;;;;;;;;;5022583;28;58712;-60
2023/04/18 03:04:57;;;;;;;1.60;1.50;;;;;;;;;;5024504;28;58158;-59
2023/04/18 03:07:22;;;;;;;1.63;1.53;;;;;;;;;;5020951;28;58895;-60
2023/04/18 03:09:47;;;;;;;1.90;1.80;;;;;;;;;;5023684;28;59248;-60
2023/04/18 03:12:13;;;;;;;1.50;1.30;;;;;;;;;;5037389;28;58975;-60
2023/04/18 03:14:38;;;;;;;1.47;1.37;;;;;;;;;;5022907;28;58410;-60
2023/04/18 03:17:03;;;;;;;1.70;1.60;;;;;;;;;;5021877;28;59242;-57
2023/04/18 03:19:28;;;;;;;1.63;1.50;;;;;;;;;;5037536;27;58945;-60
2023/04/18 03:21:53;;;;;;;1.40;1.30;;;;;;;;;;5023627;28;58454;-59
2023/04/18 03:24:19;;;;;;;1.65;1.52;;;;;;;;;;5023716;28;57737;-60
2023/04/18 03:26:44;;;;;;;1.70;1.60;;;;;;;;;;5023052;28;58225;-60
2023/04/18 03:29:09;;;;;;;1.52;1.42;;;;;;;;;;5020106;28;58495;-59
2023/04/18 03:31:35;;;;;;;1.08;1.08;;;;;;;;;;5021600;28;58325;-60
2023/04/18 03:34:00;;;;;;;1.60;1.50;;;;;;;;;;5019853;28;58764;-60
2023/04/18 03:36:27;;;;;;;1.80;1.60;;;;;;;;;;5021654;28;58478;-60
2023/04/18 03:38:53;;;;;;;1.65;1.50;;;;;;;;;;5022975;28;58265;-60
2023/04/18 03:41:18;;;;;;;1.35;1.25;;;;;;;;;;5021047;28;58724;-59
2023/04/18 03:43:43;;;;;;;1.43;1.33;;;;;;;;;;5024046;28;58341;-60
2023/04/18 03:46:08;;;;;;;1.40;1.30;;;;;;;;;;5021836;28;59839;-60
2023/04/18 03:48:35;;;;;;;1.80;1.70;;;;;;;;;;5021328;28;58456;-60
2023/04/18 03:51:01;;;;;;;2.00;1.90;;;;;;;;;;5022553;28;58419;-60
2023/04/18 03:53:26;;;;;;;1.50;1.30;;;;;;;;;;5022165;28;58643;-60
2023/04/18 03:55:51;;;;;;;2.08;1.85;;;;;;;;;;5022396;28;58803;-60
2023/04/18 03:58:16;;;;;;;1.95;1.67;;;;;;;;;;5021621;28;58735;-57
2023/04/18 04:00:42;;;;;;;1.70;1.60;;;;;;;;;;5022262;28;58459;-60
2023/04/18 04:03:07;;;;;;;1.50;1.40;;;;;;;;;;5021191;28;58487;-59
2023/04/18 04:05:32;;;;;;;2.42;1.40;;;;;;;;;;5021233;28;59222;-60
2023/04/18 04:07:57;;;;;;;1.50;1.40;;;;;;;;;;5023077;28;58632;-60
2023/04/18 04:10:22;;;;;;;2.05;1.90;;;;;;;;;;5021792;28;59808;-59
2023/04/18 04:12:47;;;;;;;1.55;1.45;;;;;;;;;;5024504;28;58864;-60
2023/04/18 04:15:12;;;;;;;1.80;1.57;;;;;;;;;;5023972;28;58637;-60
2023/04/18 04:17:38;;;;;;;1.47;1.10;;;;;;;;;;5022073;28;58691;-58
2023/04/18 04:20:04;;;;;;;1.53;1.43;;;;;;;;;;5023595;28;58284;-60
2023/04/18 04:22:29;;;;;;;1.48;1.38;;;;;;;;;;5023241;28;58432;-62
2023/04/18 04:24:56;;;;;;;1.33;1.23;;;;;;;;;;5025988;28;58431;-60
2023/04/18 04:27:21;;;;;;;1.42;1.33;;;;;;;;;;5023279;28;58482;-59
2023/04/18 04:29:48;;;;;;;1.93;1.50;;;;;;;;;;5024080;28;59825;-60
2023/04/18 04:32:13;;;;;;;2.30;2.10;;;;;;;;;;5024388;28;59094;-59
2023/04/18 04:34:40;;;;;;;1.55;1.45;;;;;;;;;;5022331;28;58318;-60
2023/04/18 04:37:05;;;;;;;1.55;1.45;;;;;;;;;;5025543;28;59047;-60
2023/04/18 04:39:30;;;;;;;1.80;1.70;;;;;;;;;;5025362;28;58865;-61
2023/04/18 04:41:56;;;;;;;1.70;1.60;;;;;;;;;;5019928;28;58311;-60
2023/04/18 04:44:24;;;;;;;2.05;1.50;;;;;;;;;;5021981;28;58241;-60
2023/04/18 04:46:49;;;;;;;5.50;2.08;;;;;;;;;;5022113;28;58808;-57
2023/04/18 04:49:15;;;;;;;2.00;1.80;;;;;;;;;;5023665;28;58100;-58
2023/04/18 04:51:40;;;;;;;2.92;2.22;;;;;;;;;;5024018;28;59112;-58
2023/04/18 04:54:05;;;;;;;2.15;1.95;;;;;;;;;;5022917;28;58887;-60
2023/04/18 04:56:31;;;;;;;3.73;3.37;;;;;;;;;;5023375;28;58371;-59
2023/04/18 04:58:56;;;;;;;3.78;2.97;;;;;;;;;;5023979;28;58393;-59
2023/04/18 05:01:21;;;;;;;9.10;3.50;;;;;;;;;;5023106;28;58993;-59
2023/04/18 05:03:46;;;;;;;5.20;3.03;;;;;;;;;;5024147;28;59880;-59
2023/04/18 05:06:12;;;;;;;7.27;3.80;;;;;;;;;;5022487;28;58155;-58
2023/04/18 05:08:38;;;;;;;8.80;4.50;;;;;;;;;;5024217;28;58458;-59
2023/04/18 05:11:03;;;;;;;3.83;3.43;;;;;;;;;;5024115;28;58586;-59
2023/04/18 05:13:28;;;;;;;3.08;2.78;;;;;;;;;;5023772;28;58471;-58
2023/04/18 05:15:53;;;;;;;2.63;2.42;;;;;;;;;;5024129;28;58351;-59
2023/04/18 05:18:19;;;;;;;3.27;2.73;;;;;;;;;;5025621;28;58741;-59
2023/04/18 05:20:44;;;;;;;3.50;2.97;;;;;;;;;;5025565;28;58648;-59
2023/04/18 05:23:09;;;;;;;3.35;2.85;;;;;;;;;;5026371;28;58376;-59
2023/04/18 05:25:35;;;;;;;2.87;2.60;;;;;;;;;;5022505;28;58579;-59
2023/04/18 05:28:03;;;;;;;5.82;3.50;;;;;;;;;;5023987;28;58442;-59
2023/04/18 05:30:28;;;;;;;3.50;2.30;;;;;;;;;;5023445;28;58632;-59
2023/04/18 05:32:53;;;;;;;4.28;2.38;;;;;;;;;;5024748;28;58832;-59
2023/04/18 05:35:18;;;;;;;2.35;2.15;;;;;;;;;;5026171;28;58737;-59
2023/04/18 05:37:43;;;;;;;2.87;2.57;;;;;;;;;;5024544;28;58389;-57
2023/04/18 05:40:09;;;;;;;5.90;2.58;;;;;;;;;;5027472;28;58471;-59
2023/04/18 05:42:34;;;;;;;2.35;2.15;;;;;;;;;;5027304;28;58823;-59
2023/04/18 05:44:59;;;;;;;2.35;2.15;;;;;;;;;;5028399;28;58720;-59
2023/04/18 05:47:27;;;;;;;2.40;2.20;;;;;;;;;;5028551;28;58851;-59
2023/04/18 05:49:52;;;;;;;2.50;2.30;;;;;;;;;;5028555;28;58700;-59
2023/04/18 05:52:17;;;;;;;2.33;1.83;;;;;;;;;;5026578;28;58754;-59
2023/04/18 05:54:42;;;;;;;4.25;2.42;;;;;;;;;;5027981;28;58503;-59
2023/04/18 05:57:07;;;;;;;3.67;2.58;;;;;;;;;;5028264;28;58747;-58
2023/04/18 05:59:32;;;;;;;2.23;2.03;;;;;;;;;;5029482;28;58375;-59
2023/04/18 06:01:58;;;;;;;2.63;2.42;;;;;;;;;;5027563;28;58437;-59
2023/04/18 06:04:23;;;;;;;2.23;2.03;;;;;;;;;;5027352;28;58632;-59
2023/04/18 06:06:48;;;;;;;2.35;2.15;;;;;;;;;;5029073;28;58555;-59
2023/04/18 06:09:13;;;;;;;1.80;1.70;;;;;;;;;;5028574;28;58720;-59
2023/04/18 06:11:38;;;;;;;2.30;1.88;;;;;;;;;;5028149;28;58684;-59
2023/04/18 06:14:03;;;;;;;2.10;1.60;;;;;;;;;;5027650;28;57962;-56
2023/04/18 06:16:28;;;;;;;2.10;1.95;;;;;;;;;;5028056;28;58805;-59
2023/04/18 06:18:54;;;;;;;1.60;1.50;;;;;;;;;;5027475;28;58803;-59
2023/04/18 06:21:19;;;;;;;2.45;2.25;;;;;;;;;;5028983;28;58721;-58
2023/04/18 06:23:45;;;;;;;1.60;1.50;;;;;;;;;;5026602;28;58762;-59
2023/04/18 06:26:10;;;;;;;2.05;1.60;;;;;;;;;;5028804;28;58230;-59
2023/04/18 06:28:35;;;;;;;1.70;1.60;;;;;;;;;;5027892;28;58336;-59
2023/04/18 06:31:00;;;;;;;2.70;2.13;;;;;;;;;;5026923;28;58318;-57
2023/04/18 06:33:25;;;;;;;1.90;1.80;;;;;;;;;;5026316;28;58539;-58
2023/04/18 06:35:51;;;;;;;2.60;1.90;;;;;;;;;;5026164;28;58998;-59
2023/04/18 06:38:16;;;;;;;2.17;1.85;;;;;;;;;;5041854;28;58819;-59
2023/04/18 06:40:41;;;;;;;1.95;1.85;;;;;;;;;;5027641;28;58371;-59
2023/04/18 06:43:06;;;;;;;1.83;1.73;;;;;;;;;;5028350;27;58276;-59
2023/04/18 06:45:31;;;;;;;2.37;2.03;;;;;;;;;;5027581;28;58692;-58
2023/04/18 06:47:58;;;;;;;1.93;1.83;;;;;;;;;;5026822;28;59617;-59
2023/04/18 06:50:24;;;;;;;4.35;1.90;;;;;;;;;;5027867;28;58874;-59
2023/04/18 06:52:49;;;;;;;3.25;1.80;;;;;;;;;;5027916;28;58080;-59
2023/04/18 06:55:14;;;;;;;1.27;1.17;;;;;;;;;;5027258;28;59357;-59
2023/04/18 06:57:40;;;;;;;2.37;1.97;;;;;;;;;;5025923;28;58392;-59
2023/04/18 07:00:05;;;;;;;1.42;1.27;;;;;;;;;;5026616;28;58369;-59
2023/04/18 07:02:30;;;;;;;2.80;1.45;;;;;;;;;;5027687;28;58337;-59
2023/04/18 07:04:55;;;;;;;1.75;1.65;;;;;;;;;;5023989;28;58727;-59
2023/04/18 07:07:21;;;;;;;2.20;1.60;;;;;;;;;;5027848;28;58351;-58
2023/04/18 07:09:47;;;;;;;1.70;1.60;;;;;;;;;;5026928;28;58544;-59
2023/04/18 07:12:12;;;;;;;1.50;1.40;;;;;;;;;;5025524;28;58427;-59
2023/04/18 07:14:37;;;;;;;2.07;1.87;;;;;;;;;;5028170;28;58426;-59
2023/04/18 07:17:02;;;;;;;1.70;1.60;;;;;;;;;;5026477;28;58336;-59
2023/04/18 07:19:27;;;;;;;1.60;1.50;;;;;;;;;;5025171;28;58727;-59
2023/04/18 07:21:54;;;;;;;1.57;1.23;;;;;;;;;;5025768;28;58008;-59
2023/04/18 07:24:22;;;;;;;1.67;1.40;;;;;;;;;;5024691;28;58635;-57
2023/04/18 07:26:47;;;;;;;1.50;1.40;;;;;;;;;;5026767;28;58343;-59
2023/04/18 07:29:12;;;;;;;1.95;1.58;;;;;;;;;;5027234;28;58188;-59
2023/04/18 07:31:37;;;;;;;1.50;1.40;;;;;;;;;;5025361;28;58447;-59
2023/04/18 07:34:03;;;;;;;1.43;1.33;;;;;;;;;;5027417;28;58593;-58
2023/04/18 07:36:28;;;;;;;2.67;1.63;;;;;;;;;;5026401;28;58624;-59
2023/04/18 07:38:53;;;;;;;1.70;1.60;;;;;;;;;;5027467;28;58723;-58
2023/04/18 07:41:19;;;;;;;1.63;1.23;;;;;;;;;;5027875;28;58915;-59
2023/04/18 07:43:44;;;;;;;1.47;1.33;;;;;;;;;;5026687;28;58367;-59
2023/04/18 07:46:09;;;;;;;1.47;1.37;;;;;;;;;;5024301;28;59585;-59
2023/04/18 07:48:34;;;;;;;1.47;1.37;;;;;;;;;;5025854;28;59863;-59
2023/04/18 07:51:00;;;;;;;1.57;1.40;;;;;;;;;;5026786;28;58455;-58
2023/04/18 07:53:25;;;;;;;1.57;1.47;;;;;;;;;;5026351;28;59864;-59
2023/04/18 07:55:50;;;;;;;1.67;1.17;;;;;;;;;;5025450;28;58513;-58
2023/04/18 07:58:15;;;;;;;1.42;1.33;;;;;;;;;;5025846;28;58566;-59
2023/04/18 08:00:42;;;;;;;1.30;1.20;;;;;;;;;;5025767;28;58541;-59
2023/04/18 08:03:11;;;;;;;1.17;1.02;;;;;;;;;;5025312;28;59131;-59
2023/04/18 08:05:36;;;;;;;1.30;1.20;;;;;;;;;;5025940;28;59014;-59
2023/04/18 08:08:02;;;;;;;2.40;2.15;;;;;;;;;;5026575;28;57887;-59
2023/04/18 08:10:27;;;;;;;1.20;1.10;;;;;;;;;;5026226;28;57883;-59
2023/04/18 08:12:52;;;;;;;1.10;1.00;;;;;;;;;;5026485;28;58749;-59
2023/04/18 08:15:17;;;;;;;1.50;1.30;;;;;;;;;;5015713;28;58585;-58
2023/04/18 08:17:43;;;;;;;1.20;1.20;;;;;;;;;;5027154;28;58627;-59
2023/04/18 08:20:09;;;;;;;1.10;1.00;;;;;;;;;;5025497;28;63356;-59
2023/04/18 08:22:34;;;;;;;1.17;1.15;;;;;;;;;;5025157;28;58381;-59
2023/04/18 08:25:00;;;;;;;1.07;1.00;;;;;;;;;;5024850;28;58273;-56
2023/04/18 08:27:26;;;;;;;1.58;1.48;;;;;;;;;;5022991;28;58341;-59
2023/04/18 08:29:51;;;;;;;1.27;1.17;;;;;;;;;;5025534;28;58516;-57
2023/04/18 08:32:16;;;;;;;1.92;1.83;;;;;;;;;;5026872;28;59112;-59
2023/04/18 08:34:42;;;;;;;2.47;1.20;;;;;;;;;;5024867;28;58649;-59
2023/04/18 08:37:07;;;;;;;2.25;1.20;;;;;;;;;;5025670;28;57854;-59
2023/04/18 08:39:32;;;;;;;1.17;1.07;;;;;;;;;;5026043;28;58323;-59
2023/04/18 08:42:02;;;;;;;1.93;1.43;;;;;;;;;;5023327;28;59289;-59
2023/04/18 08:44:27;;;;;;;1.58;1.40;;;;;;;;;;5024649;28;58813;-58
2023/04/18 08:46:53;;;;;;;1.33;1.23;;;;;;;;;;5025407;28;58002;-59
2023/04/18 08:49:21;;;;;;;1.35;1.25;;;;;;;;;;5025561;28;59588;-59
2023/04/18 08:51:48;;;;;;;1.75;1.65;;;;;;;;;;5025451;28;58158;-57
2023/04/18 08:54:14;;;;;;;1.40;1.30;;;;;;;;;;5024638;28;58398;-59
2023/04/18 08:56:39;;;;;;;1.20;1.10;;;;;;;;;;5025428;28;58355;-59
2023/04/18 08:59:04;;;;;;;2.05;1.85;;;;;;;;;;5025650;28;59436;-59
2023/04/18 09:01:50;;;;;;;1.50;1.40;;;;;;;;;;5025823;28;58731;-59
2023/04/18 09:04:33;;;;;;;1.13;1.13;;;;;;;;;;5024783;28;58885;-59
2023/04/18 09:06:58;;;;;;;0.88;0.88;;;;;;;;;;5026134;28;58530;-59
2023/04/18 09:09:26;;;;;;;1.37;1.27;;;;;;;;;;5025364;28;58875;-57
2023/04/18 09:11:51;;;;;;;1.25;1.10;;;;;;;;;;5025114;28;58442;-59
2023/04/18 09:14:23;;;;;;;1.65;1.40;;;;;;;;;;5029179;28;58919;-59
2023/04/18 09:16:49;;;;;;;1.20;1.10;;;;;;;;;;5028516;28;58688;-59
2023/04/18 09:19:17;;;;;;;1.48;1.27;;;;;;;;;;5030812;28;59208;-59
2023/04/18 09:21:45;;;;;;;1.38;1.27;;;;;;;;;;5028739;28;58518;-60
2023/04/18 09:24:19;;;;;;;1.33;1.23;;;;;;;;;;5027615;28;59066;-59
2023/04/18 09:26:45;;;;;;;1.30;1.20;;;;;;;;;;5030082;28;58816;-59
2023/04/18 09:29:10;;;;;;;1.33;1.20;;;;;;;;;;5029043;28;58156;-58
2023/04/18 09:31:49;;;;;;;1.23;1.15;;;;;;;;;;5028604;28;58661;-58
2023/04/18 09:34:25;;;;;;;1.15;1.05;;;;;;;;;;5029010;28;58723;-59
2023/04/18 09:37:06;;;;;;;1.58;1.10;;;;;;;;;;5026041;28;58757;-59
2023/04/18 09:39:31;;;;;;;2.22;1.35;;;;;;;;;;5027087;28;58314;-58
2023/04/18 09:41:57;;;;;;;1.42;1.30;;;;;;;;;;5042333;28;58551;-59
2023/04/18 09:44:22;;;;;;;1.20;1.10;;;;;;;;;;5028892;28;58419;-58
2023/04/18 09:46:48;;;;;;;1.30;1.20;;;;;;;;;;5028888;28;58438;-59
2023/04/18 09:49:13;;;;;;;1.27;1.17;;;;;;;;;;5027337;28;58657;-60
2023/04/18 09:51:39;;;;;;;1.27;1.17;;;;;;;;;;5028774;28;58417;-59
2023/04/18 09:54:04;;;;;;;2.25;1.33;;;;;;;;;;5028973;28;59169;-58
2023/04/18 09:56:30;;;;;;;0.83;0.83;;;;;;;;;;5028914;28;58285;-59
2023/04/18 09:59:01;;;;;;;1.30;1.20;;;;;;;;;;5029306;28;57815;-59
2023/04/18 10:01:27;;;;;;;1.40;1.02;;;;;;;;;;5026652;28;58296;-59
2023/04/18 10:03:53;;;;;;;1.17;1.08;;;;;;;;;;5027953;28;58315;-59
2023/04/18 10:06:18;;;;;;;1.08;1.08;;;;;;;;;;5029057;28;58366;-59
2023/04/18 10:08:44;;;;;;;1.30;1.20;;;;;;;;;;5026875;28;58496;-59
2023/04/18 10:11:09;;;;;;;1.42;1.23;;;;;;;;;;5029599;28;58718;-58
2023/04/18 10:13:38;;;;;;;2.00;1.60;;;;;;;;;;5028008;28;58731;-58
2023/04/18 10:16:03;;;;;;;1.35;1.23;;;;;;;;;;5027861;28;58742;-59
2023/04/18 10:18:28;;;;;;;1.15;1.02;;;;;;;;;;5026699;28;58634;-59
2023/04/18 10:20:59;;;;;;;0.82;0.77;;;;;;;;;;5027768;28;58359;-59
2023/04/18 10:23:44;;;;;;;1.40;0.90;;;;;;;;;;5028680;28;58397;-58
2023/04/18 10:26:10;;;;;;;0.73;0.73;;;;;;;;;;5027139;28;63216;-59
2023/04/18 10:28:48;;;;;;;1.40;1.30;;;;;;;;;;5025852;28;58355;-59
2023/04/18 10:31:14;;;;;;;1.00;0.90;;;;;;;;;;5027908;28;58485;-59
2023/04/18 10:33:44;;;;;;;1.38;1.27;;;;;;;;;;5025805;28;58154;-59
2023/04/18 10:36:16;;;;;;;0.93;0.93;;;;;;;;;;5023357;28;58502;-59
2023/04/18 10:38:48;;;;;;;1.33;1.23;;;;;;;;;;5028209;28;58739;-59
2023/04/18 10:41:13;;;;;;;0.88;0.88;;;;;;;;;;5028128;28;63125;-59
2023/04/18 10:43:57;;;;;;;1.33;1.23;;;;;;;;;;5026639;28;58358;-58
2023/04/18 10:46:22;;;;;;;0.80;0.80;;;;;;;;;;5027167;28;58826;-58
2023/04/18 10:49:07;;;;;;;1.53;1.13;;;;;;;;;;5026586;28;58741;-59
2023/04/18 10:51:32;;;;;;;0.95;0.95;;;;;;;;;;5027407;28;58371;-58
2023/04/18 10:53:58;;;;;;;1.30;0.90;;;;;;;;;;5028127;28;57821;-58
2023/04/18 10:56:24;;;;;;;1.15;1.08;;;;;;;;;;5026850;28;58648;-59
2023/04/18 10:58:50;;;;;;;0.50;0.50;;;;;;;;;;5024712;28;58780;-57
2023/04/18 11:01:22;;;;;;;1.17;1.05;;;;;;;;;;5026751;28;58797;-58
2023/04/18 11:03:47;;;;;;;1.25;1.05;;;;;;;;;;5026099;27;58568;-59
2023/04/18 11:06:12;;;;;;;0.70;0.70;;;;;;;;;;5027477;28;58736;-59
2023/04/18 11:08:37;;;;;;;0.70;0.70;;;;;;;;;;5027980;28;58367;-59
2023/04/18 11:11:05;;;;;;;1.20;1.10;;;;;;;;;;5027727;27;58705;-59
2023/04/18 11:13:30;;;;;;;;;;;;;;;;;;5026107;28;59141;-58
2023/04/18 11:15:56;;;;;;;1.65;1.20;;;;;;;;;;5027010;28;58832;-59
2023/04/18 11:18:21;;;;;;;1.35;1.25;;;;;;;;;;5027479;28;58311;-59
2023/04/18 11:20:48;;;;;;;0.90;0.90;;;;;;;;;;5027236;28;58943;-59
2023/04/18 11:23:17;;;;;;;1.13;0.90;;;;;;;;;;5026989;28;58789;-59
2023/04/18 11:25:43;;;;;;;0.68;0.65;;;;;;;;;;5026580;28;58649;-59
2023/04/18 11:28:12;;;;;;;0.82;0.82;;;;;;;;;;5025277;28;59156;-55
2023/04/18 11:30:38;;;;;;;0.65;0.65;;;;;;;;;;5023686;28;58821;-59
2023/04/18 11:33:04;;;;;;;0.60;0.60;;;;;;;;;;5026148;28;58428;-59
2023/04/18 11:35:30;;;;;;;1.15;1.05;;;;;;;;;;5025845;28;58310;-59
2023/04/18 11:37:55;;;;;;;1.57;0.80;;;;;;;;;;5027384;28;58774;-56
2023/04/18 11:40:20;;;;;;;1.05;0.70;;;;;;;;;;5027030;28;58379;-59
2023/04/18 11:42:45;;;;;;;1.00;0.93;;;;;;;;;;5025298;28;58517;-59
2023/04/18 11:45:14;;;;;;;0.83;0.83;;;;;;;;;;5027115;28;58142;-59
2023/04/18 11:47:42;;;;;;;0.73;0.73;;;;;;;;;;5027529;28;58365;-59
2023/04/18 11:50:09;;;;;;;0.80;0.80;;;;;;;;;;5019588;28;58676;-59
2023/04/18 11:52:34;;;;;;;1.08;1.00;;;;;;;;;;5023607;28;60102;-59
2023/04/18 11:55:22;;;;;;;1.20;1.10;;;;;;;;;;5025325;27;58690;-61
2023/04/18 11:57:48;;;;;;;1.35;1.23;;;;;;;;;;5023705;28;58888;-64
2023/04/18 12:00:14;;;;;;;1.38;1.27;;;;;;;;;;5039578;28;59994;-59
2023/04/18 12:02:41;;;;;;;1.27;1.10;;;;;;;;;;5024983;28;58815;-59
2023/04/18 12:05:06;;;;;;;1.30;1.20;;;;;;;;;;5026026;28;58596;-58
2023/04/18 12:07:38;;;;;;;1.43;1.00;;;;;;;;;;5025746;28;58462;-56
2023/04/18 12:10:05;;;;;;;1.35;1.05;;;;;;;;;;5028207;28;58412;-58
2023/04/18 12:12:30;;;;;;;1.48;1.15;;;;;;;;;;5021482;28;58919;-59
2023/04/18 12:15:27;;;;;;;1.50;1.40;;;;;;;;;;5023079;28;58437;-59
2023/04/18 12:17:57;;;;;;;1.50;1.23;;;;;;;;;;5023300;28;58627;-59
2023/04/18 12:20:23;;;;;;;1.77;1.58;;;;;;;;;;5023590;28;59043;-59
2023/04/18 12:22:49;;;;;;;1.17;1.08;;;;;;;;;;5023742;28;58751;-59
2023/04/18 12:25:21;;;;;;;1.45;1.20;;;;;;;;;;5022185;28;59444;-58
2023/04/18 12:28:11;;;;;;;1.75;1.10;;;;;;;;;;5023560;28;58052;-59
2023/04/18 12:30:36;;;;;;;4.97;1.25;;;;;;;;;;5023290;28;58733;-59
2023/04/18 12:33:02;;;;;;;1.77;1.45;;;;;;;;;;5025077;28;58313;-57
2023/04/18 12:35:29;;;;;;;2.15;1.15;;;;;;;;;;5022357;28;59104;-56
2023/04/18 12:37:55;;;;;;;1.20;1.10;;;;;;;;;;5024918;28;58735;-64
2023/04/18 12:40:21;;;;;;;1.25;1.15;;;;;;;;;;5025744;28;58546;-66
2023/04/18 12:42:47;;;;;;;2.53;0.90;;;;;;;;;;5023225;28;58517;-63
2023/04/18 12:45:13;;;;;;;2.65;1.23;;;;;;;;;;5023790;28;58746;-68
2023/04/18 12:47:39;;;;;;;3.22;1.48;;;;;;;;;;5026021;28;60600;-66
2023/04/18 12:50:08;;;;;;;0.95;0.90;;;;;;;;;;5027777;28;58904;-61
2023/04/18 12:52:34;;;;;;;1.08;0.82;;;;;;;;;;5030983;28;58007;-65
2023/04/18 12:54:59;;;;;;;1.42;1.33;;;;;;;;;;5030047;28;58719;-66
2023/04/18 12:57:25;;;;;;;2.10;1.37;;;;;;;;;;5022822;28;58810;-62
2023/04/18 12:59:50;;;;;;;4.25;1.50;;;;;;;;;;5028112;28;58900;-65
2023/04/18 13:02:15;;;;;;;1.00;0.93;;;;;;;;;;5022283;28;58361;-61
2023/04/18 13:04:40;;;;;;;1.37;1.10;;;;;;;;;;5029483;28;58644;-65
2023/04/18 13:07:05;;;;;;;0.88;0.88;;;;;;;;;;5028938;28;57997;-60
2023/04/18 13:09:31;;;;;;;1.00;0.90;;;;;;;;;;5027787;28;59047;-60
2023/04/18 13:11:56;;;;;;;1.30;1.20;;;;;;;;;;5028790;28;58512;-59
2023/04/18 13:14:21;;;;;;;1.10;0.95;;;;;;;;;;5029837;28;58538;-60
2023/04/18 13:16:47;;;;;;;0.90;0.90;;;;;;;;;;5028909;28;58780;-60
2023/04/18 13:19:12;;;;;;;1.25;1.00;;;;;;;;;;5029192;28;58749;-61
2023/04/18 13:21:37;;;;;;;1.17;1.00;;;;;;;;;;5027276;28;58746;-59
2023/04/18 13:24:03;;;;;;;1.60;1.40;;;;;;;;;;5027850;28;58372;-59
2023/04/18 13:26:28;;;;;;;1.23;1.07;;;;;;;;;;5030321;28;58462;-62
2023/04/18 13:28:53;;;;;;;1.37;1.27;;;;;;;;;;5027965;28;58861;-58
2023/04/18 13:31:18;;;;;;;1.23;1.13;;;;;;;;;;5030346;27;58819;-65
2023/04/18 13:33:43;;;;;;;4.30;1.08;;;;;;;;;;5031520;28;59312;-60
2023/04/18 13:36:08;;;;;;;1.30;1.20;;;;;;;;;;5030194;28;58959;-59
2023/04/18 13:38:33;;;;;;;1.17;1.07;;;;;;;;;;5030267;28;58394;-60
2023/04/18 13:40:59;;;;;;;21.43;1.90;;;;;;;;;;5027558;27;59694;-59
2023/04/18 13:43:25;;;;;;;2.30;0.90;;;;;;;;;;5020708;28;58919;-63
2023/04/18 13:45:51;;;;;;;2.55;1.00;;;;;;;;;;5031277;28;59051;-54
2023/04/18 13:48:16;;;;;;;2.95;1.35;;;;;;;;;;5030478;28;58709;-58
2023/04/18 13:50:41;;;;;;;2.97;1.20;;;;;;;;;;5030086;28;59291;-58
2023/04/18 13:53:06;;;;;;;1.17;0.90;;;;;;;;;;5025672;28;58593;-58
2023/04/18 13:55:31;;;;;;;1.00;1.00;;;;;;;;;;5024226;28;59451;-58
2023/04/18 13:57:57;;;;;;;1.17;1.02;;;;;;;;;;5029083;28;58601;-58
2023/04/18 14:00:22;;;;;;;0.80;0.80;;;;;;;;;;5026024;28;58541;-58
2023/04/18 14:02:48;;;;;;;1.30;1.20;;;;;;;;;;5029982;27;58583;-58
2023/04/18 14:05:13;;;;;;;1.20;1.10;;;;;;;;;;5026864;28;59183;-58
2023/04/18 14:07:38;;;;;;;1.53;1.43;;;;;;;;;;5029565;27;58529;-58
2023/04/18 14:10:03;;;;;;;1.37;1.13;;;;;;;;;;5030558;28;58491;-58
2023/04/18 14:12:28;;;;;;;1.05;0.70;;;;;;;;;;5032950;28;58367;-58
2023/04/18 14:14:54;;;;;;;1.15;1.00;;;;;;;;;;5029564;28;58699;-57
2023/04/18 14:17:19;;;;;;;1.20;1.10;;;;;;;;;;5030567;27;58526;-58
2023/04/18 14:19:44;;;;;;;0.70;0.70;;;;;;;;;;5029694;28;58754;-58
2023/04/18 14:22:09;;;;;;;2.17;1.17;;;;;;;;;;5028796;28;58652;-58
2023/04/18 14:24:35;;;;;;;1.87;1.20;;;;;;;;;;5031801;28;59647;-58
2023/04/18 14:27:01;;;;;;;0.88;0.88;;;;;;;;;;5030282;28;58876;-58
2023/04/18 14:29:26;;;;;;;2.40;0.98;;;;;;;;;;5028304;28;58417;-58
2023/04/18 14:31:51;;;;;;;2.50;1.27;;;;;;;;;;5030642;28;59096;-58
2023/04/18 14:34:16;;;;;;;1.88;1.05;;;;;;;;;;5029045;28;58142;-58
2023/04/18 14:36:41;;;;;;;0.70;0.70;;;;;;;;;;5028049;28;58513;-58